Time;durP1;ratioP1;P1;durP2;ratioP2;P2;SDS_P1;SDS_P2;PMS_P1;PMS_P2;Temp;Humidity;BMP_temperature;BMP_pressure;BME280_temperature;BME280_humidity;BME280_pressure;Samples;Min_cycle;Max_cycle;Signal;HPM_P1;HPM_P2
2022/05/20 00:09:14;;;;;;;4.90;1.98;;;;;;;23.67;29.85;101163.22;20762925;27;100889;-78
2022/05/20 00:19:14;;;;;;;2.70;1.90;;;;;;;23.65;30.23;101157.19;20744960;27;101311;-79
2022/05/20 00:29:15;;;;;;;3.90;2.28;;;;;;;23.63;30.23;101151.19;20725577;27;101294;-78
2022/05/20 00:39:15;;;;;;;3.20;2.00;;;;;;;23.62;30.14;101146.00;20744568;27;101808;-78
2022/05/20 00:49:16;;;;;;;3.40;1.90;;;;;;;23.57;30.37;101158.75;20762437;27;98041;-78
2022/05/20 00:59:23;;;;;;;3.47;2.20;;;;;;;23.54;30.49;101157.19;20738178;27;97589;-79
2022/05/20 01:09:25;;;;;;;3.72;1.85;;;;;;;23.51;30.32;101157.44;20752191;27;97374;-78
2022/05/20 01:19:36;;;;;;;2.60;2.10;;;;;;;23.50;30.47;101153.09;20759831;27;99667;-79
2022/05/20 01:29:36;;;;;;;4.18;2.05;;;;;;;23.49;30.73;101152.22;20760528;27;97103;-78
2022/05/20 01:39:37;;;;;;;3.58;2.22;;;;;;;23.47;30.35;101145.38;20737432;27;98194;-79
2022/05/20 01:50:09;;;;;;;2.70;2.20;;;;;;;23.45;30.64;101131.47;20772751;27;98495;-78
2022/05/20 02:00:13;;;;;;;2.50;1.80;;;;;;;23.41;30.50;101117.63;20747383;27;98275;-79
2022/05/20 02:10:25;;;;;;;2.50;1.95;;;;;;;23.39;30.76;101108.09;20739013;27;100918;-79
2022/05/20 02:20:36;;;;;;;4.73;2.20;;;;;;;23.39;30.51;101110.75;20742779;27;102033;-79
2022/05/20 02:30:37;;;;;;;2.40;1.90;;;;;;;23.34;30.66;101114.59;20742054;27;97223;-79
2022/05/20 02:40:43;;;;;;;2.60;1.90;;;;;;;23.32;30.76;101113.03;20747839;27;98439;-77
2022/05/20 02:50:44;;;;;;;2.75;1.90;;;;;;;23.28;30.51;101101.84;20749013;27;99986;-78
2022/05/20 03:11:04;;;;;;;3.83;1.92;;;;;;;23.24;30.77;101089.84;20758644;27;106590;-80
2022/05/20 03:21:05;;;;;;;4.13;1.90;;;;;;;23.23;30.72;101100.50;20789090;27;97806;-80
2022/05/20 03:31:07;;;;;;;4.50;2.17;;;;;;;23.22;30.83;101094.38;20770806;27;101405;-80
2022/05/20 03:41:08;;;;;;;3.13;2.10;;;;;;;23.21;30.78;101100.63;20788125;27;100941;-79
2022/05/20 03:51:14;;;;;;;3.38;2.15;;;;;;;23.19;30.85;101089.31;20751787;27;97682;-80
2022/05/20 04:11:34;;;;;;;6.53;2.40;;;;;;;23.12;31.08;101085.41;20764783;27;97459;-79
2022/05/20 04:21:35;;;;;;;5.50;2.30;;;;;;;23.17;30.75;101102.66;20759131;27;97241;-77
2022/05/20 04:31:41;;;;;;;8.02;1.95;;;;;;;23.23;31.29;101087.28;20752973;27;97572;-76
2022/05/20 04:52:02;;;;;;;57.47;9.95;;;;;;;23.31;31.55;101106.91;20778874;27;98986;-75
2022/05/20 05:02:03;;;;;;;38.23;6.17;;;;;;;23.31;31.90;101083.13;20754480;27;98433;-77
2022/05/20 05:12:05;;;;;;;25.60;5.03;;;;;;;23.34;32.00;101098.72;20727945;27;98477;-74
2022/05/20 05:22:06;;;;;;;12.67;3.53;;;;;;;23.08;32.30;101116.50;20723570;27;101200;-75
2022/05/20 05:32:07;;;;;;;10.18;4.05;;;;;;;23.23;32.37;101103.13;20740286;27;98453;-74
2022/05/20 05:42:09;;;;;;;12.80;3.73;;;;;;;23.26;32.60;101103.75;20759562;27;98072;-74
2022/05/20 05:52:09;;;;;;;7.18;3.33;;;;;;;23.29;32.36;101092.97;20740577;27;98804;-73
2022/05/20 06:02:10;;;;;;;4.15;2.50;;;;;;;23.31;32.39;101079.63;20742023;27;101680;-73
2022/05/20 06:12:12;;;;;;;7.47;2.90;;;;;;;23.33;32.67;101096.22;20772532;27;97056;-73
2022/05/20 06:22:13;;;;;;;6.47;2.78;;;;;;;23.38;32.60;101086.13;20789752;27;96979;-75
2022/05/20 06:32:13;;;;;;;6.43;2.40;;;;;;;23.41;32.25;101071.84;20781399;27;102512;-77
2022/05/20 06:42:14;;;;;;;3.35;2.25;;;;;;;23.40;31.79;101057.78;20802165;27;97407;-77
2022/05/20 06:52:15;;;;;;;5.57;2.40;;;;;;;23.38;31.68;101065.00;20781334;27;100642;-77
2022/05/20 07:02:16;;;;;;;5.80;1.75;;;;;;;23.42;31.39;101077.00;20788229;27;99769;-78
2022/05/20 07:12:16;;;;;;;4.80;2.25;;;;;;;23.43;31.03;101075.22;20773256;27;97742;-76
2022/05/20 07:22:17;;;;;;;8.50;2.42;;;;;;;23.40;30.69;101089.50;20767044;27;96947;-79
2022/05/20 07:32:18;;;;;;;12.23;2.13;;;;;;;23.40;30.64;101092.16;20737468;27;98789;-76
2022/05/20 07:42:18;;;;;;;6.63;2.37;;;;;;;23.44;30.38;101090.13;20758248;27;99189;-76
2022/05/20 07:53:19;;;;;;;2.97;2.10;;;;;;;23.46;30.34;101093.47;20784728;27;97277;-76
2022/05/20 08:02:41;;;;;;;4.22;2.13;;;;;;;23.48;30.34;101091.56;20774235;27;97301;-75
2022/05/20 08:12:44;;;;;;;5.85;2.17;;;;;;;23.49;30.24;101077.38;20717139;27;97862;-77
2022/05/20 08:22:45;;;;;;;5.90;2.17;;;;;;;23.53;30.77;101072.72;20749319;27;97826;-77
2022/05/20 08:32:46;;;;;;;3.87;1.97;;;;;;;23.55;31.10;101076.09;20745528;27;98010;-78
2022/05/20 08:42:49;;;;;;;3.38;2.08;;;;;;;23.58;31.24;101060.84;20772618;27;101105;-78
2022/05/20 08:52:54;;;;;;;5.47;2.10;;;;;;;23.61;31.20;101035.97;20753380;27;98124;-76
2022/05/20 09:02:55;;;;;;;3.92;1.98;;;;;;;23.63;31.71;101021.66;20742667;27;98664;-74
2022/05/20 09:13:12;;;;;;;4.25;2.20;;;;;;;23.66;31.90;100988.84;20763007;27;100390;-77
2022/05/20 09:23:15;;;;;;;8.27;2.50;;;;;;;23.69;32.15;100983.31;20745179;27;99073;-76
2022/05/20 09:33:22;;;;;;;4.65;2.17;;;;;;;23.70;31.99;100979.69;20737537;27;99490;-76
2022/05/20 09:43:25;;;;;;;6.30;2.70;;;;;;;23.73;32.01;100968.03;20718789;27;98141;-76
2022/05/20 09:53:33;;;;;;;6.55;2.55;;;;;;;23.74;32.11;100964.44;20736932;27;97921;-76
2022/05/20 10:03:36;;;;;;;4.18;2.72;;;;;;;23.76;32.11;100954.59;20766365;27;102043;-76
2022/05/20 10:13:36;;;;;;;4.22;2.80;;;;;;;23.77;31.98;100950.97;20750089;27;97066;-76
2022/05/20 10:24:18;;;;;;;3.78;2.67;;;;;;;23.79;32.16;100955.19;20730442;27;97360;-76
2022/05/20 10:34:19;;;;;;;;;;;;;;;23.82;32.06;100956.75;20755414;27;97822;-76
2022/05/20 10:55:19;;;;;;;3.08;2.42;;;;;;;23.88;32.05;100929.78;20757640;27;98486;-76
2022/05/20 11:06:03;;;;;;;4.10;2.47;;;;;;;23.92;32.04;100912.72;20787959;27;100382;-76
2022/05/20 11:16:25;;;;;;;4.10;2.25;;;;;;;23.97;32.02;100907.06;20777284;27;97677;-76
2022/05/20 11:26:37;;;;;;;6.93;2.40;;;;;;;24.01;32.15;100902.38;20771005;27;98217;-76
2022/05/20 11:36:55;;;;;;;2.20;2.00;;;;;;;24.04;32.13;100886.28;20768779;27;98764;-76
2022/05/20 11:46:59;;;;;;;4.32;2.40;;;;;;;24.09;32.05;100860.28;20775354;27;97566;-76
2022/05/20 11:57:06;;;;;;;3.42;2.00;;;;;;;24.13;32.83;100843.16;20772644;27;99632;-78
2022/05/20 12:07:12;;;;;;;7.20;2.30;;;;;;;24.21;33.68;100846.03;20736266;27;100170;-74
2022/05/20 12:17:44;;;;;;;6.15;2.20;;;;;;;24.28;33.86;100827.84;20765897;27;97381;-76
2022/05/20 12:27:44;;;;;;;7.90;2.30;;;;;;;24.37;33.46;100813.00;20757379;27;98648;-75
2022/05/20 12:37:45;;;;;;;3.92;2.55;;;;;;;24.46;33.92;100801.59;20767473;27;97223;-76
2022/05/20 12:47:46;;;;;;;5.70;2.57;;;;;;;24.53;33.92;100791.34;20762678;27;102772;-76
2022/05/20 12:57:54;;;;;;;9.20;2.50;;;;;;;24.61;34.95;100786.25;20757278;27;99598;-73
2022/05/20 13:07:57;;;;;;;17.55;2.85;;;;;;;24.70;35.57;100766.91;20757691;27;97505;-74
2022/05/20 13:18:01;;;;;;;8.93;3.10;;;;;;;24.89;35.77;100760.88;20781143;27;98499;-75
2022/05/20 13:28:02;;;;;;;13.07;3.95;;;;;;;25.16;35.63;100748.81;20768360;27;98008;-73
2022/05/20 13:38:03;;;;;;;7.05;2.90;;;;;;;25.15;35.25;100731.22;20773662;27;100726;-73
2022/05/20 13:58:34;;;;;;;4.30;2.13;;;;;;;25.27;35.21;100713.41;20788088;27;97867;-75
2022/05/20 14:08:43;;;;;;;3.15;1.95;;;;;;;25.36;35.28;100701.13;20758938;27;97278;-75
2022/05/20 14:18:56;;;;;;;12.27;2.25;;;;;;;25.43;35.58;100686.38;20759044;27;98086;-74
2022/05/20 14:28:59;;;;;;;3.83;2.20;;;;;;;25.55;35.59;100674.63;20778898;27;98525;-74
2022/05/20 14:39:02;;;;;;;3.90;2.30;;;;;;;25.62;35.58;100666.13;20800081;27;97188;-75
2022/05/20 14:49:03;;;;;;;3.75;2.22;;;;;;;25.67;35.64;100655.91;20809442;27;97300;-75
2022/05/20 14:59:04;;;;;;;10.90;2.10;;;;;;;25.72;35.57;100640.44;20776592;27;100304;-75
2022/05/20 15:09:06;;;;;;;4.78;2.17;;;;;;;25.80;35.11;100645.84;20761821;27;98310;-74
2022/05/20 15:19:07;;;;;;;5.70;2.33;;;;;;;25.77;35.23;100637.31;20698981;27;97208;-75
2022/05/20 15:29:07;;;;;;;2.40;1.90;;;;;;;25.80;35.30;100629.94;20688982;27;97798;-75
2022/05/20 15:39:12;;;;;;;5.50;2.13;;;;;;;25.81;35.34;100626.28;20692388;27;98037;-73
2022/05/20 15:49:12;;;;;;;6.72;2.08;;;;;;;25.84;35.96;100611.91;20672934;27;98190;-73
2022/05/20 15:59:13;;;;;;;3.85;2.10;;;;;;;25.89;35.94;100609.69;20676245;27;97792;-76
2022/05/20 16:09:15;;;;;;;6.70;1.93;;;;;;;25.93;35.84;100588.97;20691022;27;98832;-74
2022/05/20 16:19:16;;;;;;;3.10;1.98;;;;;;;25.93;35.96;100581.88;20667293;27;98394;-77
2022/05/20 16:29:17;;;;;;;3.77;2.17;;;;;;;26.08;36.21;100562.84;20671847;22;97784;-75
2022/05/20 16:39:17;;;;;;;5.10;1.90;;;;;;;26.08;36.89;100555.72;21356845;22;99076;-75
2022/05/20 16:49:21;;;;;;;6.60;2.33;;;;;;;26.03;37.53;100545.50;20533019;28;97733;-74
2022/05/20 17:09:42;;;;;;;4.55;1.98;;;;;;;26.02;37.23;100522.63;20520707;28;100578;-78
2022/05/20 17:19:43;;;;;;;12.40;1.93;;;;;;;26.00;37.24;100527.25;20536339;28;98020;-78
2022/05/20 17:29:45;;;;;;;7.07;2.10;;;;;;;25.99;37.16;100519.44;20543100;28;100189;-80
2022/05/20 17:39:45;;;;;;;;;;;;;;;26.00;37.77;100510.47;20585266;28;98366;-80
2022/05/20 17:49:46;;;;;;;7.13;2.58;;;;;;;26.02;38.04;100525.28;20638722;28;98969;-79
2022/05/20 17:59:46;;;;;;;8.07;5.00;;;;;;;26.09;38.29;100522.88;20620663;28;97181;-79
2022/05/20 18:09:47;;;;;;;63.83;43.95;;;;;;;26.10;38.25;100508.66;20658919;27;97599;-78
2022/05/20 18:19:47;;;;;;;73.18;49.35;;;;;;;26.11;38.18;100504.16;20704842;27;102085;-80
2022/05/20 18:29:49;;;;;;;44.25;27.33;;;;;;;26.07;37.56;100502.78;20727042;28;101058;-80
2022/05/20 18:39:50;;;;;;;8.15;4.80;;;;;;;25.98;37.05;100501.84;20759106;27;97145;-80
2022/05/20 18:49:58;;;;;;;12.65;3.58;;;;;;;25.94;36.23;100493.34;20798935;27;97021;-81
2022/05/20 19:00:00;;;;;;;7.63;4.55;;;;;;;25.95;36.28;100488.84;20806993;27;97775;-82
2022/05/20 19:10:04;;;;;;;8.82;3.40;;;;;;;25.92;36.45;100478.56;20812472;27;97777;-81
2022/05/20 19:20:05;;;;;;;7.75;4.40;;;;;;;25.89;36.72;100458.47;20790763;27;97689;-78
2022/05/20 19:30:07;;;;;;;11.93;4.07;;;;;;;25.79;36.84;100445.22;20793078;27;98182;-79
2022/05/20 19:40:08;;;;;;;9.05;3.60;;;;;;;25.68;36.74;100445.44;20803419;27;101933;-79
2022/05/20 19:50:10;;;;;;;7.03;3.90;;;;;;;25.63;37.56;100427.31;20800567;27;99498;-78
2022/05/20 20:10:33;;;;;;;7.37;3.60;;;;;;;25.34;38.73;100443.31;20787458;27;99053;-79
2022/05/20 20:20:34;;;;;;;10.75;4.00;;;;;;;25.18;38.89;100434.19;20790608;27;97286;-79
2022/05/20 20:30:35;;;;;;;7.20;4.47;;;;;;;25.04;39.44;100437.28;20806411;27;97357;-78
2022/05/20 20:40:36;;;;;;;8.50;4.50;;;;;;;25.01;39.26;100411.91;20802471;27;100104;-79
2022/05/20 20:50:39;;;;;;;10.68;4.57;;;;;;;24.91;39.74;100408.44;20781574;27;97497;-79
2022/05/20 21:00:42;;;;;;;10.85;4.97;;;;;;;24.79;39.77;100402.47;20757164;27;97086;-79
2022/05/20 21:10:43;;;;;;;8.98;4.22;;;;;;;24.81;39.90;100378.50;20778822;27;100180;-79
2022/05/20 21:20:46;;;;;;;9.55;4.30;;;;;;;24.81;40.06;100386.47;20780213;27;99389;-80
2022/05/20 21:30:47;;;;;;;6.53;4.18;;;;;;;24.66;40.79;100394.84;20764756;27;98636;-79
2022/05/20 21:40:49;;;;;;;9.40;4.30;;;;;;;24.63;40.41;100392.44;20778481;27;99958;-78
2022/05/20 21:50:49;;;;;;;12.30;5.07;;;;;;;24.57;40.69;100375.31;20772332;27;97756;-78
2022/05/20 22:11:10;;;;;;;12.02;5.43;;;;;;;24.33;42.22;100367.81;20776358;27;99436;-79
2022/05/20 22:21:10;;;;;;;7.30;4.40;;;;;;;24.31;42.23;100361.81;20771922;27;100189;-79
2022/05/20 22:31:12;;;;;;;9.98;4.93;;;;;;;24.30;42.40;100352.19;20781121;27;97630;-79
2022/05/20 22:41:13;;;;;;;9.03;4.47;;;;;;;24.23;42.34;100328.13;20765452;27;97459;-78
2022/05/20 22:51:16;;;;;;;6.88;3.80;;;;;;;24.18;42.35;100317.13;20794016;27;97860;-79
2022/05/20 23:01:24;;;;;;;5.97;3.65;;;;;;;24.09;42.62;100287.06;20761296;27;98658;-79
2022/05/20 23:11:43;;;;;;;5.90;3.70;;;;;;;24.08;42.77;100288.06;20808780;27;98050;-79
2022/05/20 23:21:44;;;;;;;5.07;3.60;;;;;;;24.03;42.70;100261.16;20798054;27;99152;-79
2022/05/20 23:31:45;;;;;;;6.80;4.17;;;;;;;23.93;43.44;100237.38;20796847;27;97599;-79
2022/05/20 23:41:45;;;;;;;5.75;3.95;;;;;;;23.93;43.34;100215.41;20805560;27;98817;-79
2022/05/20 23:51:47;;;;;;;8.48;4.53;;;;;;;23.89;43.56;100219.25;20785877;27;98130;-79
